Time;durP1;ratioP1;P1;durP2;ratioP2;P2;SDS_P1;SDS_P2;PMS_P1;PMS_P2;Temp;Humidity;BMP_temperature;BMP_pressure;BME280_temperature;BME280_humidity;BME280_pressure;Samples;Min_cycle;Max_cycle;Signal;HPM_P1;HPM_P2
2022/08/27 00:00:48;;;;;;;30.50;20.83;;;;;;;20.74;98.28;101348.72;5014682;28;20586;-78
2022/08/27 00:03:14;;;;;;;29.20;20.77;;;;;;;20.71;98.41;101348.75;5016762;28;20201;-80
2022/08/27 00:05:40;;;;;;;28.30;20.13;;;;;;;20.75;98.81;101345.25;5016806;28;20241;-84
2022/08/27 00:08:11;;;;;;;30.60;22.63;;;;;;;20.72;98.90;101342.66;5018815;28;20290;-81
2022/08/27 00:10:37;;;;;;;32.70;22.83;;;;;;;20.73;98.38;101346.16;5012581;28;20203;-79
2022/08/27 00:13:02;;;;;;;32.80;22.10;;;;;;;20.71;98.69;101337.47;5015067;28;20188;-79
2022/08/27 00:15:28;;;;;;;33.10;21.37;;;;;;;20.71;98.85;101343.56;5032147;28;20207;-81
2022/08/27 00:17:54;;;;;;;32.73;22.90;;;;;;;20.69;99.16;101331.44;5016413;28;20245;-82
2022/08/27 00:20:23;;;;;;;34.20;22.93;;;;;;;20.69;98.74;101336.66;5026189;28;20195;-82
2022/08/27 00:22:49;;;;;;;36.27;22.37;;;;;;;20.68;99.00;101327.97;5002212;28;20270;-81
2022/08/27 00:25:14;;;;;;;33.67;23.30;;;;;;;20.68;99.18;101329.72;5016464;28;20276;-79
2022/08/27 00:27:40;;;;;;;33.90;21.80;;;;;;;20.64;99.29;101330.66;5014086;28;20219;-81
2022/08/27 00:30:11;;;;;;;34.50;21.73;;;;;;;20.61;99.28;101330.69;5012563;28;20187;-82
2022/08/27 00:32:37;;;;;;;36.07;22.60;;;;;;;20.60;99.18;101329.81;5014627;28;20201;-79
2022/08/27 00:35:03;;;;;;;37.60;22.27;;;;;;;20.61;99.31;101328.94;5013392;28;20948;-79
2022/08/27 00:37:29;;;;;;;36.93;21.77;;;;;;;20.58;99.67;101330.72;5007646;28;20211;-80
2022/08/27 00:39:54;;;;;;;38.33;22.00;;;;;;;20.56;99.43;101328.16;5016154;28;20218;-81
2022/08/27 00:42:21;;;;;;;31.90;21.57;;;;;;;20.56;99.50;101335.09;5029975;28;20199;-79
2022/08/27 00:44:47;;;;;;;32.80;21.80;;;;;;;20.53;99.80;101333.38;5006098;28;20195;-80
2022/08/27 00:47:19;;;;;;;35.43;21.73;;;;;;;20.51;99.55;101329.09;5013794;28;20353;-81
2022/08/27 00:50:03;;;;;;;35.30;21.27;;;;;;;20.53;98.96;101330.78;5027199;28;20222;-80
2022/08/27 00:52:53;;;;;;;33.50;21.27;;;;;;;20.53;99.10;101335.13;4999566;28;20191;-77
2022/08/27 00:55:23;;;;;;;36.17;21.23;;;;;;;20.54;99.45;101339.47;5004570;28;20252;-79
2022/08/27 00:58:00;;;;;;;35.57;21.13;;;;;;;20.53;99.34;101345.53;5032017;28;20189;-81
2022/08/27 01:00:25;;;;;;;34.60;21.20;;;;;;;20.48;99.76;101349.94;5026033;28;20325;-79
2022/08/27 01:02:51;;;;;;;34.87;22.20;;;;;;;20.48;99.72;101349.94;5013303;28;20229;-80
2022/08/27 01:05:20;;;;;;;31.73;21.97;;;;;;;20.45;99.79;101361.25;5014198;28;20306;-80
2022/08/27 01:07:50;;;;;;;38.37;23.07;;;;;;;20.40;99.97;101359.59;5010439;28;20672;-78
2022/08/27 01:10:20;;;;;;;32.53;21.97;;;;;;;20.40;100.00;101365.66;5011512;28;20211;-81
2022/08/27 01:12:46;;;;;;;29.30;19.60;;;;;;;20.42;99.74;101366.50;5012935;28;20199;-82
2022/08/27 01:15:15;;;;;;;39.13;23.10;;;;;;;20.36;100.00;101374.38;5012866;28;20215;-81
2022/08/27 01:17:43;;;;;;;32.87;21.30;;;;;;;20.38;99.90;101374.34;5013354;28;20257;-80
2022/08/27 01:20:16;;;;;;;34.57;21.50;;;;;;;20.34;100.00;101380.47;5021905;28;20203;-78
2022/08/27 01:23:15;;;;;;;32.23;21.47;;;;;;;20.32;100.00;101371.84;5013706;28;20286;-80
2022/08/27 01:25:43;;;;;;;36.27;21.87;;;;;;;20.30;99.86;101379.66;5019609;28;20203;-81
2022/08/27 01:28:10;;;;;;;33.10;21.97;;;;;;;20.27;100.00;101381.44;5017058;28;20187;-79
2022/08/27 01:30:36;;;;;;;33.90;22.20;;;;;;;20.28;100.00;101381.44;5032480;28;20672;-81
2022/08/27 01:33:13;;;;;;;37.10;22.67;;;;;;;20.29;99.75;101382.25;5029578;28;20233;-80
2022/08/27 01:35:40;;;;;;;32.67;22.17;;;;;;;20.29;99.92;101382.25;5013700;28;20272;-81
2022/08/27 01:38:06;;;;;;;34.50;21.23;;;;;;;20.29;99.57;101384.88;5013428;28;20202;-77
2022/08/27 01:40:31;;;;;;;33.30;21.17;;;;;;;20.28;99.75;101385.75;5018231;28;20199;-80
2022/08/27 01:42:57;;;;;;;34.00;21.07;;;;;;;20.30;100.00;101389.19;5018438;28;20246;-82
2022/08/27 01:45:26;;;;;;;31.73;21.23;;;;;;;20.27;99.63;101389.25;5022941;28;20206;-82
2022/08/27 01:47:52;;;;;;;31.87;21.03;;;;;;;20.25;99.62;101384.06;5020978;28;20696;-77
2022/08/27 01:50:22;;;;;;;32.07;21.20;;;;;;;20.25;99.58;101386.66;5016584;28;20209;-80
2022/08/27 01:52:48;;;;;;;31.33;21.93;;;;;;;20.23;99.62;101377.97;5015886;28;20211;-82
2022/08/27 01:55:17;;;;;;;33.07;20.77;;;;;;;20.24;99.44;101377.13;5008371;28;20202;-80
2022/08/27 01:57:43;;;;;;;30.67;21.13;;;;;;;20.26;99.32;101377.97;5016591;28;20801;-79
2022/08/27 02:00:14;;;;;;;34.73;22.23;;;;;;;20.22;99.17;101372.81;5012094;28;20191;-80
2022/08/27 02:02:40;;;;;;;35.27;20.83;;;;;;;20.21;99.34;101371.94;5013175;28;20601;-81
2022/08/27 02:05:06;;;;;;;41.07;21.63;;;;;;;20.19;98.93;101370.25;5021274;28;20571;-81
2022/08/27 02:07:32;;;;;;;34.40;21.23;;;;;;;20.18;98.80;101371.13;5008251;28;20207;-83
2022/08/27 02:09:57;;;;;;;31.97;22.40;;;;;;;20.16;99.40;101365.06;5014542;28;20750;-83
2022/08/27 02:12:23;;;;;;;38.43;22.00;;;;;;;20.18;98.97;101365.94;5012637;28;20190;-79
2022/08/27 02:14:48;;;;;;;36.27;21.83;;;;;;;20.13;98.98;101363.38;5007432;28;20195;-79
2022/08/27 02:17:14;;;;;;;34.23;21.43;;;;;;;20.15;99.43;101366.81;5005314;28;20211;-81
2022/08/27 02:19:40;;;;;;;34.10;20.97;;;;;;;20.15;99.70;101361.63;5011481;28;20195;-81
2022/08/27 02:22:05;;;;;;;38.53;23.30;;;;;;;20.12;99.49;101358.19;5012952;28;20205;-81
2022/08/27 02:24:31;;;;;;;36.60;22.20;;;;;;;20.11;99.34;101357.34;5008787;28;20282;-81
2022/08/27 02:26:57;;;;;;;36.70;22.60;;;;;;;20.12;99.21;101361.66;5011451;28;20224;-81
2022/08/27 02:29:23;;;;;;;38.33;20.80;;;;;;;20.12;99.08;101355.56;5012340;28;20187;-81
2022/08/27 02:31:49;;;;;;;38.93;22.37;;;;;;;20.11;99.48;101361.66;5014675;28;20183;-79
2022/08/27 02:34:15;;;;;;;38.07;20.73;;;;;;;20.13;98.74;101367.72;5012562;28;20801;-81
2022/08/27 02:36:42;;;;;;;34.87;21.37;;;;;;;20.10;98.88;101368.63;5014431;28;20246;-79
2022/08/27 02:39:08;;;;;;;34.10;20.90;;;;;;;20.11;98.87;101357.34;5011315;28;20246;-81
2022/08/27 02:41:35;;;;;;;32.53;20.67;;;;;;;20.12;98.91;101363.38;5029337;28;20242;-78
2022/08/27 02:44:01;;;;;;;35.33;22.57;;;;;;;20.08;99.60;101359.97;5021621;28;20194;-82
2022/08/27 02:46:27;;;;;;;35.00;22.07;;;;;;;20.08;99.32;101361.72;5024441;28;20245;-81
2022/08/27 02:48:53;;;;;;;36.07;22.53;;;;;;;20.06;99.62;101364.28;5029863;28;20202;-82
2022/08/27 02:51:19;;;;;;;40.67;21.73;;;;;;;20.04;99.76;101360.84;5033818;28;20195;-82
2022/08/27 02:53:45;;;;;;;39.03;21.73;;;;;;;20.04;99.28;101354.78;5030503;28;20203;-81
2022/08/27 02:56:10;;;;;;;35.57;21.57;;;;;;;20.04;99.61;101360.84;5022943;28;20209;-79
2022/08/27 02:58:36;;;;;;;37.67;22.07;;;;;;;20.03;99.17;101353.91;5017770;28;20195;-79
2022/08/27 03:01:02;;;;;;;38.17;21.77;;;;;;;20.05;99.50;101359.09;5015496;28;20214;-81
2022/08/27 03:03:28;;;;;;;42.40;22.93;;;;;;;20.00;99.60;101359.13;5016242;28;20290;-81
2022/08/27 03:05:56;;;;;;;39.67;22.03;;;;;;;20.00;99.71;101355.69;5027372;28;20227;-79
2022/08/27 03:08:23;;;;;;;38.70;21.90;;;;;;;19.99;99.64;101362.63;5017644;28;20195;-81
2022/08/27 03:10:49;;;;;;;43.10;22.13;;;;;;;20.03;99.87;101366.91;5016174;28;20249;-80
2022/08/27 03:13:14;;;;;;;37.27;22.43;;;;;;;20.01;99.69;101362.63;4997835;28;20206;-81
2022/08/27 03:15:40;;;;;;;37.73;22.13;;;;;;;19.96;99.81;101369.59;5016515;28;20207;-81
2022/08/27 03:18:17;;;;;;;42.13;21.83;;;;;;;19.95;100.00;101371.31;5010908;28;20199;-81
2022/08/27 03:20:52;;;;;;;41.03;22.97;;;;;;;19.94;100.00;101373.97;5017269;28;20672;-79
2022/08/27 03:23:21;;;;;;;39.43;21.53;;;;;;;19.94;100.00;101373.97;4998674;28;20190;-80
2022/08/27 03:25:53;;;;;;;48.17;23.43;;;;;;;19.95;99.68;101378.28;5032758;28;20242;-81
2022/08/27 03:28:21;;;;;;;42.97;22.03;;;;;;;19.94;99.53;101371.38;5016638;28;20349;-81
2022/08/27 03:30:49;;;;;;;42.07;22.47;;;;;;;19.96;99.51;101380.00;5018563;28;20290;-79
2022/08/27 03:33:14;;;;;;;39.13;21.63;;;;;;;19.91;99.73;101379.19;5020286;28;20725;-81
2022/08/27 03:35:40;;;;;;;41.63;20.43;;;;;;;19.91;99.50;101374.00;5019767;28;20285;-81
2022/08/27 03:38:05;;;;;;;37.67;20.30;;;;;;;19.91;99.67;101374.88;5009552;28;20222;-80
2022/08/27 03:40:31;;;;;;;42.27;21.80;;;;;;;19.88;99.73;101371.41;5015731;28;20266;-80
2022/08/27 03:42:57;;;;;;;37.33;21.33;;;;;;;19.88;99.63;101369.69;5016915;28;20261;-82
2022/08/27 03:45:22;;;;;;;39.20;22.13;;;;;;;19.91;99.58;101366.19;5014809;28;20183;-80
2022/08/27 03:47:49;;;;;;;34.33;20.87;;;;;;;19.90;99.69;101367.91;5014936;28;20732;-80
2022/08/27 03:50:15;;;;;;;37.83;21.47;;;;;;;19.88;99.56;101361.00;5017387;28;20187;-80
2022/08/27 03:52:40;;;;;;;37.67;19.97;;;;;;;19.90;99.69;101364.47;5013093;28;20708;-79
2022/08/27 03:55:07;;;;;;;39.57;21.53;;;;;;;19.87;99.58;101367.97;5009013;28;20351;-79
2022/08/27 03:57:33;;;;;;;35.40;20.77;;;;;;;19.89;99.84;101365.31;5014690;28;20225;-79
2022/08/27 03:59:59;;;;;;;37.80;21.77;;;;;;;19.86;99.41;101367.97;5032169;28;20191;-78
2022/08/27 04:02:25;;;;;;;38.03;20.80;;;;;;;19.85;99.94;101371.47;5016829;28;20183;-79
2022/08/27 04:04:51;;;;;;;36.73;21.57;;;;;;;19.85;100.00;101363.66;5017217;28;20441;-78
2022/08/27 04:07:17;;;;;;;38.70;21.77;;;;;;;19.82;99.24;101366.28;5017033;28;20257;-79
2022/08/27 04:09:42;;;;;;;38.53;21.07;;;;;;;19.81;99.68;101368.00;5012628;28;20743;-80
2022/08/27 04:12:08;;;;;;;34.43;21.10;;;;;;;19.81;99.37;101362.81;5017480;28;20192;-81
2022/08/27 04:14:33;;;;;;;38.27;21.70;;;;;;;19.80;99.89;101365.44;5012414;28;20195;-80
2022/08/27 04:16:59;;;;;;;35.00;20.67;;;;;;;19.81;99.95;101369.75;5013391;28;20222;-78
2022/08/27 04:19:29;;;;;;;43.73;21.07;;;;;;;19.81;99.92;101367.16;5011741;28;20183;-77
2022/08/27 04:22:02;;;;;;;39.87;21.10;;;;;;;19.80;99.77;101361.09;5009344;28;20207;-81
2022/08/27 04:24:30;;;;;;;37.93;21.30;;;;;;;19.80;99.85;101370.66;5012360;28;20191;-78
2022/08/27 04:26:55;;;;;;;39.27;20.73;;;;;;;19.80;99.80;101365.44;5013894;28;20227;-79
2022/08/27 04:29:21;;;;;;;41.93;21.43;;;;;;;19.80;99.65;101362.84;5009758;28;20190;-82
2022/08/27 04:31:46;;;;;;;36.43;20.47;;;;;;;19.78;99.84;101364.59;5009355;28;20211;-80
2022/08/27 04:34:12;;;;;;;35.67;21.53;;;;;;;19.77;99.82;101373.25;5011923;28;20206;-80
2022/08/27 04:36:37;;;;;;;35.50;22.40;;;;;;;19.79;99.90;101368.91;5009893;28;20219;-80
2022/08/27 04:39:03;;;;;;;34.47;21.17;;;;;;;19.77;99.79;101371.50;5012775;28;20191;-82
2022/08/27 04:41:32;;;;;;;35.47;21.60;;;;;;;19.78;99.72;101368.06;4997537;28;20191;-80
2022/08/27 04:44:03;;;;;;;35.80;21.17;;;;;;;19.79;99.49;101374.97;5007656;28;20234;-82
2022/08/27 04:46:32;;;;;;;36.07;20.27;;;;;;;19.81;99.58;101374.97;5010583;28;20218;-80
2022/08/27 04:49:00;;;;;;;39.57;22.67;;;;;;;19.76;99.61;101377.59;5005257;28;20199;-81
2022/08/27 04:51:27;;;;;;;36.57;21.97;;;;;;;19.76;99.59;101377.59;5008722;28;20183;-82
2022/08/27 04:53:52;;;;;;;37.93;21.17;;;;;;;19.76;99.93;101387.16;5004416;28;20210;-79
2022/08/27 04:56:21;;;;;;;47.33;20.17;;;;;;;19.80;99.37;101383.66;5010565;28;20211;-80
2022/08/27 04:58:47;;;;;;;37.27;20.57;;;;;;;19.73;99.62;101380.25;5008388;28;20226;-80
2022/08/27 05:01:18;;;;;;;32.70;20.57;;;;;;;19.69;99.16;101372.47;5020992;28;20191;-79
2022/08/27 05:03:44;;;;;;;32.00;21.83;;;;;;;19.66;99.26;101375.97;5021508;28;20671;-82
2022/08/27 05:06:11;;;;;;;35.00;21.10;;;;;;;19.66;99.14;101375.97;5005211;28;20257;-80
2022/08/27 05:08:38;;;;;;;33.90;20.40;;;;;;;19.64;99.34;101380.31;5009543;28;20696;-80
2022/08/27 05:11:07;;;;;;;32.67;21.03;;;;;;;19.68;99.10;101373.34;5008881;28;20230;-81
2022/08/27 05:13:33;;;;;;;33.20;22.07;;;;;;;19.66;98.87;101375.97;5024053;28;20210;-79
2022/08/27 05:16:01;;;;;;;32.97;21.60;;;;;;;19.66;99.12;101375.13;5006586;28;20265;-81
2022/08/27 05:18:27;;;;;;;32.83;20.73;;;;;;;19.66;99.40;101377.72;5008503;28;20824;-81
2022/08/27 05:20:53;;;;;;;33.43;21.67;;;;;;;19.64;99.38;101382.91;5019192;28;20202;-79
2022/08/27 05:23:19;;;;;;;35.73;21.47;;;;;;;19.65;99.17;101381.16;5012754;28;20194;-81
2022/08/27 05:25:47;;;;;;;34.83;20.43;;;;;;;19.67;98.91;101374.22;5024710;28;20246;-81
2022/08/27 05:28:14;;;;;;;31.23;20.67;;;;;;;19.72;99.26;101378.50;5008807;28;20269;-82
2022/08/27 05:30:44;;;;;;;36.27;21.80;;;;;;;19.74;98.83;101378.47;5023206;28;20650;-79
2022/08/27 05:33:10;;;;;;;35.63;20.90;;;;;;;19.77;98.22;101388.88;4998650;28;20705;-80
2022/08/27 05:35:56;;;;;;;34.00;21.20;;;;;;;19.76;98.73;101387.16;5001626;28;20357;-80
2022/08/27 05:38:25;;;;;;;35.83;20.93;;;;;;;19.72;99.09;101386.28;4998901;28;20191;-80
2022/08/27 05:41:19;;;;;;;34.07;20.53;;;;;;;19.72;98.79;101388.03;5000853;28;20203;-80
2022/08/27 05:43:46;;;;;;;36.90;22.50;;;;;;;19.72;98.86;101382.84;4997797;28;20636;-81
2022/08/27 05:46:15;;;;;;;33.73;21.57;;;;;;;19.73;98.48;101381.97;4995291;28;20223;-81
2022/08/27 05:48:42;;;;;;;33.43;21.20;;;;;;;19.72;98.33;101390.66;5020244;28;20286;-79
2022/08/27 05:51:12;;;;;;;34.63;20.87;;;;;;;19.66;98.75;101388.13;5023425;28;20392;-81
2022/08/27 05:53:38;;;;;;;28.73;19.27;;;;;;;19.73;98.37;101392.34;5011747;28;20195;-80
2022/08/27 05:56:10;;;;;;;34.57;21.23;;;;;;;19.69;98.65;101385.47;5002698;28;20211;-83
2022/08/27 06:01:22;;;;;;;27.97;20.30;;;;;;;19.66;98.12;101390.72;5015208;28;20179;-79
2022/08/27 06:03:48;;;;;;;33.63;21.37;;;;;;;19.65;98.11;101391.56;5019753;28;20237;-80
2022/08/27 06:06:13;;;;;;;29.97;20.70;;;;;;;19.69;98.18;101395.84;5009111;28;20223;-80
2022/08/27 06:08:39;;;;;;;30.77;20.20;;;;;;;19.72;98.39;101398.44;5018584;28;20198;-79
2022/08/27 06:11:06;;;;;;;34.83;21.33;;;;;;;19.70;98.07;101390.66;5008675;28;20199;-82
2022/08/27 06:13:34;;;;;;;33.53;20.37;;;;;;;19.68;97.68;101397.63;5011934;28;20846;-80
2022/08/27 06:16:08;;;;;;;29.90;20.60;;;;;;;19.64;97.89;101403.72;5030590;28;20218;-79
2022/08/27 06:18:35;;;;;;;38.03;22.13;;;;;;;19.65;98.10;101396.75;5013201;28;20533;-80
2022/08/27 06:21:01;;;;;;;29.73;21.07;;;;;;;19.66;98.37;101398.50;5027642;28;20183;-80
2022/08/27 06:23:27;;;;;;;28.13;20.40;;;;;;;19.67;98.68;101400.22;5027014;28;20221;-82
2022/08/27 06:25:54;;;;;;;31.67;20.73;;;;;;;19.69;98.34;101398.47;5012680;28;20214;-80
2022/08/27 06:28:20;;;;;;;32.93;21.03;;;;;;;19.69;98.12;101401.94;5027979;28;20195;-79
2022/08/27 06:30:46;;;;;;;33.40;21.03;;;;;;;19.70;98.19;101403.66;5009294;28;20194;-80
2022/08/27 06:33:11;;;;;;;35.57;21.67;;;;;;;19.75;97.95;101395.78;5006032;28;20195;-83
2022/08/27 06:35:37;;;;;;;31.33;20.93;;;;;;;19.79;97.57;101394.91;5019140;28;20757;-80
2022/08/27 06:38:02;;;;;;;34.40;21.60;;;;;;;19.74;97.50;101396.69;5011250;28;20184;-80
2022/08/27 06:40:28;;;;;;;32.70;22.10;;;;;;;19.78;97.71;101398.38;5013342;28;20191;-79
2022/08/27 06:42:54;;;;;;;29.60;21.07;;;;;;;19.77;97.95;101400.09;5012850;28;20191;-80
2022/08/27 06:45:19;;;;;;;31.40;22.07;;;;;;;19.76;97.48;101398.38;5010987;28;20572;-80
2022/08/27 06:47:45;;;;;;;34.47;22.77;;;;;;;19.77;97.80;101397.50;5007782;28;20253;-79
2022/08/27 06:50:10;;;;;;;35.40;21.13;;;;;;;19.83;97.77;101392.28;5009585;28;20187;-79
2022/08/27 06:52:36;;;;;;;32.07;22.17;;;;;;;19.85;97.52;101397.47;5012161;28;20195;-80
2022/08/27 06:55:02;;;;;;;30.73;21.43;;;;;;;19.98;96.79;101393.84;5011622;28;20187;-81
2022/08/27 06:57:27;;;;;;;30.93;20.40;;;;;;;20.04;96.61;101404.19;5024936;28;20226;-81
2022/08/27 06:59:52;;;;;;;29.53;21.17;;;;;;;20.04;96.55;101399.00;5028757;28;20207;-79
2022/08/27 07:02:18;;;;;;;34.17;20.53;;;;;;;20.11;96.15;101405.88;5008580;28;20188;-80
2022/08/27 07:04:43;;;;;;;29.63;20.87;;;;;;;20.07;95.78;101406.75;5008697;28;20258;-80
2022/08/27 07:07:12;;;;;;;33.70;21.07;;;;;;;20.16;95.89;101401.47;5016892;28;20666;-80
2022/08/27 07:09:37;;;;;;;31.67;21.10;;;;;;;20.12;96.02;101400.66;5027015;28;20294;-80
2022/08/27 07:12:04;;;;;;;30.53;20.47;;;;;;;20.07;95.93;101402.41;5011055;28;20340;-80
2022/08/27 07:14:30;;;;;;;30.10;20.00;;;;;;;20.11;95.63;101408.47;5010831;28;20187;-80
2022/08/27 07:16:56;;;;;;;28.90;20.07;;;;;;;20.15;95.00;101405.84;5010883;28;20250;-80
2022/08/27 07:19:21;;;;;;;30.50;18.97;;;;;;;20.19;94.66;101410.16;5012040;28;20285;-80
2022/08/27 07:21:47;;;;;;;29.90;19.80;;;;;;;20.21;94.63;101408.38;5008980;28;20249;-81
2022/08/27 07:24:12;;;;;;;28.23;19.70;;;;;;;20.14;94.13;101406.72;5027688;28;20203;-81
2022/08/27 07:26:40;;;;;;;30.60;19.43;;;;;;;20.21;93.86;101410.97;5009537;28;20211;-79
2022/08/27 07:29:09;;;;;;;29.17;19.13;;;;;;;20.29;93.83;101409.16;5017480;28;20191;-78
2022/08/27 07:31:34;;;;;;;26.93;19.13;;;;;;;20.28;93.66;101412.66;5009498;28;20354;-81
2022/08/27 07:34:01;;;;;;;29.13;18.47;;;;;;;20.21;94.08;101420.50;5012430;28;20207;-78
2022/08/27 07:36:27;;;;;;;26.37;18.43;;;;;;;20.25;93.47;101417.00;5011739;28;20249;-79
2022/08/27 07:38:53;;;;;;;27.90;17.07;;;;;;;20.24;93.48;101423.09;5003566;28;20244;-81
2022/08/27 07:41:19;;;;;;;24.60;16.87;;;;;;;20.18;93.55;101424.00;5015040;28;20256;-79
2022/08/27 07:46:28;;;;;;;32.70;17.87;;;;;;;20.06;93.70;101424.13;5008109;28;20255;-80
2022/08/27 07:48:56;;;;;;;23.57;16.93;;;;;;;20.02;93.65;101434.53;4994231;28;20200;-81
2022/08/27 07:51:24;;;;;;;26.73;16.90;;;;;;;19.93;93.77;101435.50;5016248;28;20808;-79
2022/08/27 07:53:50;;;;;;;27.27;16.63;;;;;;;19.93;92.61;101438.09;5001214;28;20214;-82
2022/08/27 07:56:16;;;;;;;25.20;16.67;;;;;;;19.89;93.30;101441.59;5000361;28;20211;-82
2022/08/27 07:58:42;;;;;;;25.20;17.53;;;;;;;19.84;93.70;101443.38;5013608;28;20234;-83
2022/08/27 08:01:09;;;;;;;29.60;17.37;;;;;;;19.87;93.64;101451.16;5013155;28;20195;-80
2022/08/27 08:03:35;;;;;;;26.03;17.40;;;;;;;19.83;93.76;101448.59;5008458;28;20684;-80
2022/08/27 08:06:06;;;;;;;25.73;17.40;;;;;;;19.85;93.35;101455.50;5026078;28;20219;-80
2022/08/27 08:08:34;;;;;;;24.70;16.83;;;;;;;19.82;93.27;101452.06;5022092;28;20199;-79
2022/08/27 08:11:02;;;;;;;28.13;16.23;;;;;;;19.90;92.77;101455.47;5006163;28;20199;-79
2022/08/27 08:13:29;;;;;;;27.80;15.77;;;;;;;19.94;92.98;101452.81;5012311;28;20609;-81
2022/08/27 08:15:56;;;;;;;22.73;15.30;;;;;;;19.85;92.71;101452.91;5009313;28;20220;-81
2022/08/27 08:18:21;;;;;;;21.57;14.87;;;;;;;19.80;93.08;101470.28;5011486;28;20198;-79
2022/08/27 08:20:47;;;;;;;22.40;14.47;;;;;;;19.84;92.87;101458.97;5008362;28;20195;-81
2022/08/27 08:23:12;;;;;;;23.67;14.13;;;;;;;19.88;92.72;101467.59;5010503;28;20645;-82
2022/08/27 08:25:38;;;;;;;22.77;13.67;;;;;;;19.87;92.52;101473.69;5006904;28;20215;-79
2022/08/27 08:28:03;;;;;;;26.60;14.43;;;;;;;19.81;92.85;101469.38;4991496;28;20274;-79
2022/08/27 08:30:29;;;;;;;25.07;15.00;;;;;;;19.79;92.76;101475.47;5007061;28;20190;-79
2022/08/27 08:32:54;;;;;;;23.80;14.13;;;;;;;19.78;92.28;101482.44;5023341;28;20195;-79
2022/08/27 08:35:20;;;;;;;23.33;14.17;;;;;;;19.74;92.37;101478.13;5003365;28;20222;-80
2022/08/27 08:37:45;;;;;;;20.50;13.70;;;;;;;19.74;92.03;101477.25;5002152;28;20179;-79
2022/08/27 08:40:30;;;;;;;25.57;14.03;;;;;;;19.76;92.06;101491.97;4987116;28;20218;-83
2022/08/27 08:42:56;;;;;;;23.43;14.47;;;;;;;19.75;92.47;101486.78;5005103;28;20223;-81
2022/08/27 08:45:26;;;;;;;23.80;14.70;;;;;;;19.70;92.47;101486.81;5007774;28;20206;-81
2022/08/27 08:48:12;;;;;;;25.30;15.17;;;;;;;19.70;92.37;101496.34;5004163;28;20294;-81
2022/08/27 08:51:14;;;;;;;26.00;14.53;;;;;;;19.74;91.99;101496.31;5006131;28;20191;-79
2022/08/27 08:53:50;;;;;;;23.00;13.70;;;;;;;19.73;92.11;101492.00;5011254;28;20218;-81
2022/08/27 08:56:35;;;;;;;19.60;12.70;;;;;;;19.65;91.74;101500.72;5012735;28;20254;-78
2022/08/27 08:59:07;;;;;;;21.67;13.37;;;;;;;19.65;91.95;101495.53;5012094;28;20195;-80
2022/08/27 09:01:34;;;;;;;23.87;13.30;;;;;;;19.67;92.05;101499.00;5018610;28;20239;-81
2022/08/27 09:04:03;;;;;;;24.43;13.90;;;;;;;19.70;91.87;101493.75;5013968;28;20285;-80
2022/08/27 09:06:44;;;;;;;24.60;13.50;;;;;;;19.77;91.76;101500.63;5013757;28;20302;-79
2022/08/27 09:09:18;;;;;;;25.57;12.83;;;;;;;19.77;91.87;101500.63;5010712;28;20661;-79
2022/08/27 09:12:10;;;;;;;18.90;11.83;;;;;;;19.75;91.69;101504.97;5012207;28;20190;-79
2022/08/27 09:14:48;;;;;;;22.70;11.83;;;;;;;19.68;91.85;101504.19;5016063;28;20191;-80
2022/08/27 09:17:13;;;;;;;21.60;11.37;;;;;;;19.73;91.60;101506.72;5009731;28;20223;-81
2022/08/27 09:19:39;;;;;;;19.77;11.37;;;;;;;19.74;91.85;101505.84;5012970;28;20833;-79
2022/08/27 09:22:19;;;;;;;20.60;11.17;;;;;;;19.84;91.58;101510.97;5010076;28;20179;-83
2022/08/27 09:24:59;;;;;;;18.50;10.73;;;;;;;19.84;91.19;101510.97;5011352;28;20282;-79
2022/08/27 09:27:25;;;;;;;18.33;11.37;;;;;;;19.82;91.27;101511.88;5010095;28;20278;-78
2022/08/27 09:29:54;;;;;;;22.43;10.93;;;;;;;19.95;90.69;101508.31;4993065;28;20203;-81
2022/08/27 09:32:31;;;;;;;21.90;11.30;;;;;;;19.95;89.98;101511.75;5007358;28;20574;-79
2022/08/27 09:34:59;;;;;;;18.17;11.43;;;;;;;19.93;90.01;101510.03;5012522;28;20202;-80
2022/08/27 09:37:30;;;;;;;21.27;11.23;;;;;;;19.94;89.87;101515.22;5030873;28;20191;-78
2022/08/27 09:40:24;;;;;;;20.60;11.17;;;;;;;19.95;89.31;101514.34;5006649;28;20204;-81
2022/08/27 09:42:53;;;;;;;19.47;9.43;;;;;;;19.97;89.10;101519.53;5006378;28;20194;-79
2022/08/27 09:45:27;;;;;;;18.03;9.50;;;;;;;19.99;89.21;101515.22;5011684;28;20641;-80
2022/08/27 09:48:06;;;;;;;20.00;10.53;;;;;;;19.98;89.48;101521.25;5005995;28;20226;-79
2022/08/27 09:50:46;;;;;;;20.87;9.90;;;;;;;19.97;89.30;101516.94;5015236;28;20201;-81
2022/08/27 09:53:19;;;;;;;17.83;9.93;;;;;;;19.90;89.09;101510.06;5021690;28;20242;-81
2022/08/27 09:55:52;;;;;;;18.73;9.67;;;;;;;19.97;89.28;101515.22;5010848;28;20211;-79
2022/08/27 09:58:19;;;;;;;18.90;10.67;;;;;;;20.00;89.36;101509.97;5022277;28;20194;-82
2022/08/27 10:00:46;;;;;;;25.37;10.37;;;;;;;19.96;89.18;101513.50;4992175;28;20219;-78
2022/08/27 10:03:12;;;;;;;20.50;11.43;;;;;;;20.08;89.23;101515.16;5010613;28;20282;-78
2022/08/27 10:05:41;;;;;;;18.60;10.13;;;;;;;20.10;89.41;101527.28;5026597;28;20601;-79
2022/08/27 10:08:16;;;;;;;21.23;10.70;;;;;;;20.08;89.09;101521.22;5016320;28;20246;-80
2022/08/27 10:11:03;;;;;;;15.33;9.87;;;;;;;20.12;88.74;101516.84;5012947;28;20179;-81
2022/08/27 10:13:57;;;;;;;17.10;10.33;;;;;;;20.03;88.50;101519.50;5009250;28;20218;-80
2022/08/27 10:16:54;;;;;;;17.97;10.23;;;;;;;20.07;88.26;101523.78;4983004;28;20738;-81
2022/08/27 10:19:38;;;;;;;20.57;9.93;;;;;;;20.18;88.12;101516.81;5010390;28;20262;-80
2022/08/27 10:22:13;;;;;;;17.67;10.07;;;;;;;20.16;87.82;101515.94;5015951;28;20203;-80
2022/08/27 10:24:50;;;;;;;22.37;10.10;;;;;;;20.18;86.75;101516.81;5024604;28;20178;-82
2022/08/27 10:27:16;;;;;;;20.97;10.50;;;;;;;20.15;87.10;101519.41;5002150;28;20294;-80
2022/08/27 10:30:03;;;;;;;17.97;10.37;;;;;;;20.21;87.30;101515.03;5008309;28;20736;-80
2022/08/27 10:32:50;;;;;;;21.70;10.47;;;;;;;20.21;86.99;101517.63;5011114;28;20190;-80
2022/08/27 10:35:22;;;;;;;16.63;9.77;;;;;;;20.19;86.70;101522.00;4993172;28;20187;-81
2022/08/27 10:38:23;;;;;;;19.53;11.40;;;;;;;20.10;86.62;101522.06;5011836;28;20692;-78
2022/08/27 10:41:06;;;;;;;17.40;9.83;;;;;;;20.17;87.20;101525.50;5009338;28;20204;-78
2022/08/27 10:44:17;;;;;;;18.60;10.43;;;;;;;20.09;86.75;101529.88;5005209;28;20198;-79
2022/08/27 10:46:58;;;;;;;23.63;10.83;;;;;;;20.03;86.89;101535.13;4979207;28;20704;-80
2022/08/27 10:49:45;;;;;;;22.47;10.50;;;;;;;19.92;87.58;101531.72;5019779;28;20187;-78
2022/08/27 10:52:20;;;;;;;21.77;11.33;;;;;;;19.98;88.07;101529.06;5010002;28;20187;-80
2022/08/27 10:55:04;;;;;;;20.70;10.77;;;;;;;19.98;87.67;101524.72;5002482;28;20191;-81
2022/08/27 10:58:01;;;;;;;23.97;10.80;;;;;;;19.98;87.45;101529.06;5020675;28;20234;-80
2022/08/27 11:00:48;;;;;;;19.07;10.47;;;;;;;19.95;86.96;101536.91;4996351;28;20280;-82
2022/08/27 11:03:46;;;;;;;18.27;10.77;;;;;;;19.96;87.01;101533.41;4994616;28;20187;-80
2022/08/27 11:06:22;;;;;;;16.37;9.77;;;;;;;20.04;86.60;101535.06;5003027;28;20227;-81
2022/08/27 11:09:00;;;;;;;19.33;10.93;;;;;;;20.07;87.00;101527.25;5004930;28;20629;-79
2022/08/27 11:11:39;;;;;;;18.90;11.57;;;;;;;20.02;86.79;101538.56;5008815;28;20274;-79
2022/08/27 11:14:08;;;;;;;17.53;10.10;;;;;;;20.11;86.09;101529.00;5012151;28;20202;-81
2022/08/27 11:16:44;;;;;;;21.77;9.43;;;;;;;20.16;86.38;101534.16;5008145;28;20207;-79
2022/08/27 11:19:30;;;;;;;16.27;9.43;;;;;;;20.21;86.47;101520.22;5007867;28;20186;-80
2022/08/27 11:22:07;;;;;;;16.93;9.93;;;;;;;20.17;85.97;101528.09;5010402;28;20223;-80
2022/08/27 11:24:57;;;;;;;16.63;9.90;;;;;;;20.18;85.98;101522.00;5024925;28;20175;-79
2022/08/27 11:27:26;;;;;;;16.60;9.70;;;;;;;20.31;85.12;101526.22;5007695;28;20226;-79